createdAt,value
2023-05-02T00:01:58.302Z,11.10
2023-05-02T00:04:47.677Z,11.30
2023-05-02T00:07:38.021Z,11.30
2023-05-02T00:10:27.441Z,11.40
2023-05-02T00:13:16.769Z,11.20
2023-05-02T00:16:07.268Z,12.00
2023-05-02T00:18:58.003Z,11.87
2023-05-02T00:21:49.837Z,11.20
2023-05-02T00:24:39.232Z,11.60
2023-05-02T00:27:28.576Z,11.40
2023-05-02T00:30:18.789Z,12.00
2023-05-02T00:33:08.242Z,11.77
2023-05-02T00:35:58.862Z,11.50
2023-05-02T00:38:48.223Z,11.10
2023-05-02T00:41:37.488Z,11.10
2023-05-02T00:44:26.779Z,11.57
2023-05-02T00:47:17.000Z,11.73
2023-05-02T00:50:08.062Z,10.80
2023-05-02T00:52:59.073Z,11.00
2023-05-02T00:55:49.586Z,11.47
2023-05-02T00:58:41.720Z,11.17
2023-05-02T01:01:54.981Z,11.17
2023-05-02T01:05:01.850Z,11.80
2023-05-02T01:08:10.161Z,11.20
2023-05-02T01:11:07.860Z,11.03
2023-05-02T01:14:00.237Z,11.13
2023-05-02T01:16:51.043Z,11.20
2023-05-02T01:19:44.950Z,11.43
2023-05-02T01:22:35.042Z,11.07
2023-05-02T01:25:37.793Z,11.73
2023-05-02T01:28:38.053Z,11.10
2023-05-02T01:31:32.650Z,11.80
2023-05-02T01:34:23.165Z,11.50
2023-05-02T01:37:14.231Z,11.30
2023-05-02T01:40:06.136Z,11.60
2023-05-02T01:42:58.528Z,11.47
2023-05-02T01:45:51.708Z,11.77
2023-05-02T01:48:46.105Z,12.20
2023-05-02T01:51:38.359Z,12.00
2023-05-02T01:54:28.864Z,12.20
2023-05-02T01:57:20.083Z,11.53
2023-05-02T02:00:11.350Z,11.73
2023-05-02T02:03:06.920Z,11.50
2023-05-02T02:05:59.215Z,11.00
2023-05-02T02:08:48.637Z,11.00
2023-05-02T02:11:45.697Z,11.00
2023-05-02T02:14:38.426Z,11.20
2023-05-02T02:17:37.327Z,11.17
2023-05-02T02:20:28.340Z,11.47
2023-05-02T02:23:23.197Z,11.40
2023-05-02T02:26:13.891Z,11.43
2023-05-02T02:29:06.163Z,11.30
2023-05-02T02:31:55.506Z,11.30
2023-05-02T02:34:44.905Z,11.60
2023-05-02T02:37:36.970Z,11.13
2023-05-02T02:40:34.053Z,11.43
2023-05-02T02:43:34.071Z,10.90
2023-05-02T02:46:45.044Z,11.30
2023-05-02T02:49:48.935Z,10.90
2023-05-02T02:52:54.019Z,10.80
2023-05-02T02:55:49.650Z,10.73
2023-05-02T02:58:49.444Z,10.97
2023-05-02T03:01:45.073Z,10.90
2023-05-02T03:04:37.555Z,11.27
2023-05-02T03:07:29.818Z,11.00
2023-05-02T03:10:20.578Z,11.23
2023-05-02T03:13:11.312Z,11.30
2023-05-02T03:16:35.190Z,11.10
2023-05-02T03:19:26.527Z,11.13
2023-05-02T03:22:17.893Z,11.27
2023-05-02T03:25:08.845Z,10.97
2023-05-02T03:28:00.554Z,11.07
2023-05-02T03:30:51.265Z,10.67
2023-05-02T03:33:40.857Z,11.00
2023-05-02T03:36:30.162Z,11.00
2023-05-02T03:39:19.518Z,11.10
2023-05-02T03:42:08.997Z,10.57
2023-05-02T03:44:58.278Z,11.30
2023-05-02T03:47:51.512Z,10.43
2023-05-02T03:50:41.163Z,10.80
2023-05-02T03:53:31.519Z,11.00
2023-05-02T03:56:21.802Z,10.93
2023-05-02T03:59:21.342Z,10.87
2023-05-02T04:02:11.552Z,10.87
2023-05-02T04:05:08.691Z,11.33
2023-05-02T04:07:59.326Z,10.87
2023-05-02T04:10:48.789Z,10.93
2023-05-02T04:13:38.156Z,11.10
2023-05-02T04:16:27.686Z,10.90
2023-05-02T04:19:18.423Z,11.20
2023-05-02T04:22:09.258Z,10.63
2023-05-02T04:25:02.847Z,10.70
2023-05-02T04:27:53.401Z,10.73
2023-05-02T04:30:45.641Z,10.50
2023-05-02T04:33:36.375Z,10.73
2023-05-02T04:36:28.221Z,10.83
2023-05-02T04:39:19.442Z,11.23
2023-05-02T04:42:18.675Z,10.90
2023-05-02T04:45:15.640Z,11.40
2023-05-02T04:48:07.402Z,11.20
2023-05-02T04:50:56.762Z,10.40
2023-05-02T04:53:46.618Z,10.93
2023-05-02T04:56:38.240Z,10.50
2023-05-02T04:59:27.583Z,11.23
2023-05-02T05:02:17.108Z,11.10
2023-05-02T05:05:07.755Z,10.63
2023-05-02T05:07:57.188Z,10.63
2023-05-02T05:10:48.180Z,11.20
2023-05-02T05:13:39.157Z,10.83
2023-05-02T05:16:29.473Z,10.87
2023-05-02T05:19:20.044Z,10.73
2023-05-02T05:22:09.969Z,10.70
2023-05-02T05:24:59.836Z,10.50
2023-05-02T05:27:53.298Z,11.27
2023-05-02T05:30:44.577Z,10.27
2023-05-02T05:33:37.145Z,10.37
2023-05-02T05:36:27.745Z,10.10
2023-05-02T05:39:17.076Z,10.87
2023-05-02T05:42:09.845Z,10.50
2023-05-02T05:45:00.191Z,10.43
2023-05-02T05:47:51.674Z,10.60
2023-05-02T05:50:41.819Z,11.40
2023-05-02T05:53:31.295Z,10.67
2023-05-02T05:56:21.910Z,10.57
2023-05-02T05:59:18.280Z,10.27
2023-05-02T06:02:08.447Z,10.30
2023-05-02T06:04:59.385Z,10.83
2023-05-02T06:07:48.908Z,14.93
2023-05-02T06:10:38.256Z,13.87
2023-05-02T06:13:27.910Z,12.30
2023-05-02T06:16:18.580Z,12.33
2023-05-02T06:19:08.215Z,11.00
2023-05-02T06:21:58.965Z,11.00
2023-05-02T06:24:48.346Z,11.20
2023-05-02T06:27:37.662Z,10.93
2023-05-02T06:30:27.200Z,10.70
2023-05-02T06:33:16.600Z,10.27
2023-05-02T06:36:06.344Z,11.03
2023-05-02T06:38:57.037Z,10.50
2023-05-02T06:41:46.381Z,10.40
2023-05-02T06:44:39.096Z,10.23
2023-05-02T06:47:28.892Z,10.07
2023-05-02T06:50:18.347Z,10.53
2023-05-02T06:53:07.699Z,10.23
2023-05-02T06:55:58.782Z,10.20
2023-05-02T06:58:48.127Z,10.17
2023-05-02T07:01:37.524Z,10.20
2023-05-02T07:04:29.395Z,9.93
2023-05-02T07:07:20.574Z,10.23
2023-05-02T07:10:11.468Z,9.73
2023-05-02T07:13:02.209Z,9.80
2023-05-02T07:15:51.567Z,10.00
2023-05-02T07:18:42.310Z,9.80
2023-05-02T07:21:32.480Z,9.73
2023-05-02T07:24:21.965Z,10.00
2023-05-02T07:27:12.144Z,10.00
2023-05-02T07:30:03.547Z,10.13
2023-05-02T07:32:53.169Z,9.97
2023-05-02T07:35:42.670Z,9.87
2023-05-02T07:38:31.956Z,9.50
2023-05-02T07:41:21.233Z,9.90
2023-05-02T07:44:10.583Z,9.43
2023-05-02T07:47:01.317Z,9.10
2023-05-02T07:49:53.116Z,9.37
2023-05-02T07:52:42.618Z,9.63
2023-05-02T07:55:33.248Z,9.63
2023-05-02T07:58:22.642Z,9.47
2023-05-02T08:01:12.243Z,9.40
2023-05-02T08:04:03.183Z,9.47
2023-05-02T08:06:52.940Z,9.50
2023-05-02T08:09:42.416Z,9.10
2023-05-02T08:12:31.770Z,9.20
2023-05-02T08:15:22.361Z,9.50
2023-05-02T08:18:11.813Z,9.13
2023-05-02T08:21:02.597Z,9.07
2023-05-02T08:23:51.936Z,9.40
2023-05-02T08:26:41.349Z,9.47
2023-05-02T08:29:32.165Z,9.50
2023-05-02T08:32:22.400Z,9.30
2023-05-02T08:35:12.499Z,9.00
2023-05-02T08:38:03.327Z,9.07
2023-05-02T08:40:52.742Z,9.57
2023-05-02T08:43:42.632Z,9.37
2023-05-02T08:46:33.838Z,9.30
2023-05-02T08:49:25.426Z,9.23
2023-05-02T08:52:15.769Z,9.97
2023-05-02T08:55:08.977Z,9.40
2023-05-02T08:57:59.647Z,9.20
2023-05-02T09:00:52.144Z,9.07
2023-05-02T09:03:44.711Z,9.70
2023-05-02T09:06:35.236Z,9.33
2023-05-02T09:09:24.992Z,9.50
2023-05-02T09:12:16.352Z,9.70
2023-05-02T09:15:13.565Z,9.70
2023-05-02T09:18:03.159Z,9.47
2023-05-02T09:20:53.066Z,9.67
2023-05-02T09:23:44.218Z,9.93
2023-05-02T09:26:33.689Z,9.80
2023-05-02T09:29:25.263Z,10.27
2023-05-02T09:32:14.649Z,9.90
2023-05-02T09:35:08.010Z,9.80
2023-05-02T09:37:58.622Z,10.00
2023-05-02T09:40:56.009Z,9.97
2023-05-02T09:43:45.727Z,9.67
2023-05-02T09:46:43.821Z,9.43
2023-05-02T09:49:44.967Z,9.47
2023-05-02T09:52:34.589Z,8.93
2023-05-02T09:55:23.951Z,9.50
2023-05-02T09:58:23.490Z,9.47
2023-05-02T10:01:17.148Z,9.43
2023-05-02T10:04:09.637Z,9.47
2023-05-02T10:06:59.910Z,9.67
2023-05-02T10:09:51.488Z,9.83
2023-05-02T10:12:41.494Z,9.80
2023-05-02T10:15:32.606Z,9.60
2023-05-02T10:18:30.627Z,9.30
2023-05-02T10:21:27.463Z,9.60
2023-05-02T10:24:18.246Z,9.80
2023-05-02T10:27:07.978Z,10.00
2023-05-02T10:30:00.547Z,9.93
2023-05-02T10:32:53.249Z,10.17
2023-05-02T10:35:46.883Z,10.20
2023-05-02T10:38:38.667Z,10.20
2023-05-02T10:41:31.829Z,10.37
2023-05-02T10:44:34.931Z,10.80
2023-05-02T10:47:27.126Z,10.10
2023-05-02T10:50:16.803Z,10.87
2023-05-02T10:53:25.044Z,10.43
2023-05-02T10:56:22.211Z,10.07
2023-05-02T10:59:30.545Z,10.30
2023-05-02T11:02:51.713Z,10.00
2023-05-02T11:06:09.719Z,9.80
2023-05-02T11:09:35.159Z,9.87
2023-05-02T11:12:48.979Z,9.57
2023-05-02T11:16:00.673Z,9.70
2023-05-02T11:19:10.897Z,9.80
2023-05-02T11:22:34.670Z,9.70
2023-05-02T11:25:39.377Z,9.70
2023-05-02T11:28:48.032Z,9.63
2023-05-02T11:31:55.631Z,10.23
2023-05-02T11:34:46.176Z,9.90
2023-05-02T11:37:36.433Z,10.17
2023-05-02T11:40:26.730Z,9.67
2023-05-02T11:43:19.016Z,9.70
2023-05-02T11:46:11.715Z,9.83
2023-05-02T11:49:02.258Z,9.77
2023-05-02T11:51:51.704Z,9.83
2023-05-02T11:54:41.753Z,10.57
2023-05-02T11:57:34.421Z,9.73
2023-05-02T12:00:29.077Z,9.83
2023-05-02T12:03:25.673Z,9.60
2023-05-02T12:06:19.009Z,9.80
2023-05-02T12:09:10.238Z,9.60
2023-05-02T12:11:59.958Z,9.30
2023-05-02T12:14:49.376Z,10.00
2023-05-02T12:17:41.323Z,9.30
2023-05-02T12:20:32.103Z,9.57
2023-05-02T12:23:22.839Z,9.83
2023-05-02T12:26:19.810Z,9.37
2023-05-02T12:29:09.182Z,9.60
2023-05-02T12:31:59.936Z,9.80
2023-05-02T12:34:49.372Z,10.40
2023-05-02T12:37:40.607Z,9.87
2023-05-02T12:40:29.969Z,10.37
2023-05-02T12:43:20.216Z,10.30
2023-05-02T12:46:13.279Z,9.97
2023-05-02T12:49:08.348Z,10.30
2023-05-02T12:51:58.350Z,10.20
2023-05-02T12:54:49.602Z,10.50
2023-05-02T12:57:38.928Z,10.40
2023-05-02T13:00:28.291Z,10.37
2023-05-02T13:03:17.742Z,10.30
2023-05-02T13:06:07.726Z,10.20
2023-05-02T13:08:57.177Z,10.60
2023-05-02T13:11:48.849Z,10.30
2023-05-02T13:14:38.363Z,10.47
2023-05-02T13:17:27.767Z,10.40
2023-05-02T13:20:17.279Z,10.37
2023-05-02T13:23:06.762Z,10.27
2023-05-02T13:25:56.270Z,10.43
2023-05-02T13:28:46.936Z,9.90
2023-05-02T13:31:36.449Z,9.97
2023-05-02T13:34:25.954Z,10.47
2023-05-02T13:37:15.393Z,10.17
2023-05-02T13:40:05.467Z,10.10
2023-05-02T13:42:54.923Z,10.13
2023-05-02T13:45:47.511Z,10.40
2023-05-02T13:48:37.819Z,10.07
2023-05-02T13:51:27.308Z,10.10
2023-05-02T13:54:16.708Z,10.67
2023-05-02T13:57:06.552Z,10.20
2023-05-02T13:59:55.898Z,10.37
2023-05-02T14:02:48.652Z,10.30
2023-05-02T14:05:41.008Z,10.50
2023-05-02T14:08:30.247Z,10.23
2023-05-02T14:11:19.650Z,10.50
2023-05-02T14:14:12.386Z,10.30
2023-05-02T14:17:02.702Z,10.40
2023-05-02T14:19:53.639Z,10.53
2023-05-02T14:22:42.919Z,10.83
2023-05-02T14:25:32.229Z,10.27
2023-05-02T14:28:21.663Z,10.13
2023-05-02T14:31:11.504Z,10.03
2023-05-02T14:34:00.978Z,10.43
2023-05-02T14:36:51.946Z,10.13
2023-05-02T14:39:42.619Z,10.57
2023-05-02T14:42:31.886Z,10.70
2023-05-02T14:45:21.519Z,10.07
2023-05-02T14:48:13.880Z,10.37
2023-05-02T14:51:05.645Z,10.83
2023-05-02T14:53:56.628Z,9.90
2023-05-02T14:56:45.968Z,10.20
2023-05-02T14:59:36.026Z,10.30
2023-05-02T15:02:26.037Z,9.60
2023-05-02T15:05:15.411Z,10.00
2023-05-02T15:08:04.939Z,9.90
2023-05-02T15:10:56.984Z,9.80
2023-05-02T15:13:46.317Z,10.00
2023-05-02T15:16:37.108Z,9.60
2023-05-02T15:19:26.540Z,9.60
2023-05-02T15:22:18.280Z,9.60
2023-05-02T15:25:09.479Z,9.87
2023-05-02T15:28:00.308Z,9.23
2023-05-02T15:30:50.164Z,9.60
2023-05-02T15:33:39.644Z,9.70
2023-05-02T15:36:29.900Z,9.70
2023-05-02T15:39:19.312Z,9.73
2023-05-02T15:42:08.651Z,9.60
2023-05-02T15:44:59.302Z,9.40
2023-05-02T15:47:48.796Z,9.63
2023-05-02T15:50:38.574Z,9.53
2023-05-02T15:53:27.926Z,9.70
2023-05-02T15:56:17.435Z,9.40
2023-05-02T15:59:06.789Z,9.30
2023-05-02T16:01:57.697Z,9.80
2023-05-02T16:04:47.186Z,9.20
2023-05-02T16:07:36.575Z,9.33
2023-05-02T16:10:26.056Z,9.20
2023-05-02T16:13:15.391Z,9.43
2023-05-02T16:16:05.315Z,9.13
2023-05-02T16:18:56.426Z,9.80
2023-05-02T16:21:45.939Z,9.63
2023-05-02T16:24:35.245Z,9.43
2023-05-02T16:27:24.944Z,9.37
2023-05-02T16:30:15.758Z,9.50
2023-05-02T16:33:05.395Z,9.70
2023-05-02T16:36:03.287Z,9.73
2023-05-02T16:38:52.671Z,10.10
2023-05-02T16:41:42.015Z,10.30
2023-05-02T16:44:31.689Z,9.70
2023-05-02T16:47:21.461Z,10.10
2023-05-02T16:50:11.677Z,9.70
2023-05-02T16:53:02.852Z,10.13
2023-05-02T16:55:52.185Z,10.27
2023-05-02T16:58:41.448Z,9.70
2023-05-02T17:01:31.097Z,9.70
2023-05-02T17:04:20.810Z,9.40
2023-05-02T17:07:11.796Z,9.50
2023-05-02T17:10:04.232Z,9.70
2023-05-02T17:12:55.946Z,9.50
2023-05-02T17:15:45.359Z,9.17
2023-05-02T17:18:34.704Z,9.57
2023-05-02T17:21:24.424Z,9.97
2023-05-02T17:24:13.900Z,9.33
2023-05-02T17:27:04.879Z,9.50
2023-05-02T17:29:54.189Z,9.47
2023-05-02T17:32:43.708Z,9.73
2023-05-02T17:35:33.073Z,9.60
2023-05-02T17:38:22.468Z,9.50
2023-05-02T17:41:12.186Z,11.20
2023-05-02T17:44:03.087Z,9.90
2023-05-02T17:46:52.852Z,9.37
2023-05-02T17:49:42.156Z,9.10
2023-05-02T17:52:31.584Z,9.10
2023-05-02T17:55:21.276Z,9.70
2023-05-02T17:58:10.748Z,9.27
2023-05-02T18:01:09.096Z,9.40
2023-05-02T18:03:58.976Z,9.07
2023-05-02T18:06:48.737Z,9.10
2023-05-02T18:09:38.203Z,9.33
2023-05-02T18:12:27.547Z,9.40
2023-05-02T18:15:16.849Z,9.53
2023-05-02T18:18:07.698Z,9.90
2023-05-02T18:20:57.782Z,9.30
2023-05-02T18:23:47.822Z,9.67
2023-05-02T18:26:37.122Z,10.20
2023-05-02T18:29:26.819Z,9.93
2023-05-02T18:32:16.137Z,9.43
2023-05-02T18:35:11.212Z,9.63
2023-05-02T18:38:00.529Z,9.20
2023-05-02T18:40:49.849Z,9.60
2023-05-02T18:43:39.228Z,9.17
2023-05-02T18:46:28.626Z,9.30
2023-05-02T18:49:18.143Z,9.23
2023-05-02T18:52:08.992Z,9.63
2023-05-02T18:54:58.456Z,9.40
2023-05-02T18:57:47.809Z,9.20
2023-05-02T19:00:37.486Z,9.37
2023-05-02T19:03:26.965Z,9.53
2023-05-02T19:06:17.880Z,9.20
2023-05-02T19:09:08.827Z,9.10
2023-05-02T19:11:58.148Z,9.70
2023-05-02T19:14:47.922Z,9.27
2023-05-02T19:17:37.476Z,9.30
2023-05-02T19:20:29.595Z,9.63
2023-05-02T19:23:20.554Z,9.47
2023-05-02T19:26:15.608Z,9.20
2023-05-02T19:29:04.932Z,9.33
2023-05-02T19:31:54.394Z,9.80
2023-05-02T19:34:43.719Z,9.50
2023-05-02T19:37:33.219Z,9.37
2023-05-02T19:40:22.571Z,9.70
2023-05-02T19:43:13.227Z,9.60
2023-05-02T19:46:02.739Z,9.20
2023-05-02T19:48:52.491Z,9.30
2023-05-02T19:51:42.375Z,9.40
2023-05-02T19:54:33.263Z,9.27
2023-05-02T19:57:22.636Z,9.80
2023-05-02T20:00:15.065Z,9.63
2023-05-02T20:03:04.668Z,9.67
2023-05-02T20:05:55.541Z,9.07
2023-05-02T20:08:44.825Z,9.57
2023-05-02T20:11:34.162Z,9.07
2023-05-02T20:14:23.517Z,9.40
2023-05-02T20:17:14.191Z,9.40
2023-05-02T20:20:07.284Z,9.00
2023-05-02T20:22:57.051Z,9.60
2023-05-02T20:25:46.647Z,9.33
2023-05-02T20:28:36.080Z,9.60
2023-05-02T20:31:26.058Z,9.40
2023-05-02T20:34:16.803Z,9.13
2023-05-02T20:37:07.570Z,9.20
2023-05-02T20:39:57.109Z,9.00
2023-05-02T20:42:47.301Z,9.63
2023-05-02T20:45:36.824Z,9.33
2023-05-02T20:48:26.231Z,9.50
2023-05-02T20:51:17.222Z,9.10
2023-05-02T20:54:06.838Z,9.50
2023-05-02T20:56:56.164Z,9.30
2023-05-02T20:59:46.026Z,9.50
2023-05-02T21:02:35.832Z,9.10
2023-05-02T21:05:25.219Z,9.83
2023-05-02T21:08:15.876Z,9.63
2023-05-02T21:11:14.310Z,9.50
2023-05-02T21:14:03.626Z,9.73
2023-05-02T21:16:53.596Z,9.50
2023-05-02T21:19:43.219Z,9.53
2023-05-02T21:22:32.494Z,9.50
2023-05-02T21:25:23.906Z,9.20
2023-05-02T21:28:13.304Z,9.20
2023-05-02T21:31:03.380Z,9.30
2023-05-02T21:33:52.708Z,9.10
2023-05-02T21:36:43.337Z,9.37
2023-05-02T21:39:32.726Z,9.27
2023-05-02T21:42:23.440Z,9.17
2023-05-02T21:45:13.324Z,9.50
2023-05-02T21:48:02.633Z,9.43
2023-05-02T21:50:52.068Z,9.30
2023-05-02T21:53:41.449Z,9.20
2023-05-02T21:56:30.777Z,9.60
2023-05-02T21:59:21.483Z,10.17
2023-05-02T22:02:10.936Z,9.80
2023-05-02T22:05:00.871Z,9.47
2023-05-02T22:07:50.602Z,9.60
2023-05-02T22:10:42.080Z,9.80
2023-05-02T22:13:31.484Z,10.10
2023-05-02T22:16:22.154Z,9.80
2023-05-02T22:19:14.548Z,9.23
2023-05-02T22:22:03.902Z,9.57
2023-05-02T22:24:53.173Z,9.20
2023-05-02T22:27:42.734Z,9.40
2023-05-02T22:30:31.999Z,9.13
2023-05-02T22:33:22.682Z,9.83
2023-05-02T22:36:11.996Z,9.70
2023-05-02T22:39:01.297Z,9.57
2023-05-02T22:41:50.606Z,9.57
2023-05-02T22:44:53.157Z,10.13
2023-05-02T22:47:43.690Z,9.63
2023-05-02T22:50:34.894Z,9.60
2023-05-02T22:53:25.001Z,10.03
2023-05-02T22:56:14.308Z,9.70
2023-05-02T22:59:03.669Z,9.43
2023-05-02T23:01:52.953Z,10.60
2023-05-02T23:04:42.313Z,9.73
2023-05-02T23:07:33.048Z,9.70
2023-05-02T23:10:22.362Z,9.77
2023-05-02T23:13:11.687Z,9.87
2023-05-02T23:16:01.143Z,9.87
2023-05-02T23:18:50.471Z,9.70
2023-05-02T23:21:39.749Z,10.03
2023-05-02T23:24:30.476Z,10.20
2023-05-02T23:27:19.814Z,10.00
2023-05-02T23:30:10.394Z,9.60
2023-05-02T23:33:00.602Z,9.40
2023-05-02T23:35:50.117Z,10.00
2023-05-02T23:38:39.934Z,9.70
2023-05-02T23:41:31.347Z,9.37
2023-05-02T23:44:20.641Z,10.20
2023-05-02T23:47:10.041Z,10.13
2023-05-02T23:49:59.445Z,9.97
2023-05-02T23:52:48.818Z,9.87
2023-05-02T23:55:38.149Z,10.00
2023-05-02T23:58:28.838Z,9.93
